createdAt,value
2018-03-26T00:00:01.241Z,8.90
2018-03-26T00:02:28.698Z,8.90
2018-03-26T00:04:56.175Z,8.89
2018-03-26T00:07:23.651Z,8.89
2018-03-26T00:09:51.172Z,8.88
2018-03-26T00:12:18.626Z,8.91
2018-03-26T00:14:46.114Z,8.87
2018-03-26T00:17:13.586Z,8.92
2018-03-26T00:19:41.036Z,8.93
2018-03-26T00:22:08.483Z,8.95
2018-03-26T00:24:36.229Z,8.94
2018-03-26T00:27:03.688Z,8.95
2018-03-26T00:29:31.174Z,8.92
2018-03-26T00:31:58.669Z,8.97
2018-03-26T00:34:26.160Z,8.97
2018-03-26T00:36:53.635Z,9.04
2018-03-26T00:39:21.140Z,8.86
2018-03-26T00:41:48.606Z,8.80
2018-03-26T00:44:16.200Z,8.72
2018-03-26T00:46:44.424Z,8.67
2018-03-26T00:49:11.956Z,8.54
2018-03-26T00:51:39.461Z,8.50
2018-03-26T00:54:06.938Z,8.50
2018-03-26T00:56:34.421Z,8.43
2018-03-26T00:59:01.877Z,8.44
2018-03-26T01:01:29.307Z,8.52
2018-03-26T01:03:57.612Z,8.51
2018-03-26T01:06:25.116Z,8.48
2018-03-26T01:08:52.600Z,8.50
2018-03-26T01:11:20.125Z,8.45
2018-03-26T01:13:47.554Z,8.47
2018-03-26T01:16:15.000Z,8.44
2018-03-26T01:18:42.464Z,8.41
2018-03-26T01:21:09.940Z,8.37
2018-03-26T01:23:37.400Z,8.38
2018-03-26T01:26:04.866Z,8.37
2018-03-26T01:28:32.313Z,8.34
2018-03-26T01:30:59.782Z,8.33
2018-03-26T01:33:27.236Z,8.29
2018-03-26T01:35:54.671Z,8.31
2018-03-26T01:38:22.160Z,8.34
2018-03-26T01:40:49.584Z,8.33
2018-03-26T01:43:17.130Z,8.30
2018-03-26T01:45:44.588Z,8.36
2018-03-26T01:48:12.028Z,8.39
2018-03-26T01:50:39.502Z,8.36
2018-03-26T01:53:06.976Z,8.40
2018-03-26T01:55:34.502Z,8.36
2018-03-26T01:58:01.986Z,8.31
2018-03-26T02:00:29.448Z,8.35
2018-03-26T02:02:56.992Z,8.33
2018-03-26T02:05:24.450Z,8.31
2018-03-26T02:07:51.946Z,8.25
2018-03-26T02:10:19.398Z,8.31
2018-03-26T02:12:47.226Z,8.35
2018-03-26T02:15:14.664Z,8.33
2018-03-26T02:17:42.116Z,8.31
2018-03-26T02:20:09.608Z,8.32
2018-03-26T02:22:37.072Z,8.27
2018-03-26T02:25:04.524Z,8.26
2018-03-26T02:27:32.060Z,8.28
2018-03-26T02:29:59.507Z,8.31
2018-03-26T02:32:26.967Z,8.29
2018-03-26T02:34:54.451Z,8.31
2018-03-26T02:37:21.901Z,8.36
2018-03-26T02:39:49.504Z,8.41
2018-03-26T02:42:16.959Z,8.35
2018-03-26T02:44:44.417Z,8.35
2018-03-26T02:47:11.856Z,8.33
2018-03-26T02:49:39.369Z,8.33
2018-03-26T02:52:06.882Z,8.36
2018-03-26T02:54:34.357Z,8.39
2018-03-26T02:57:01.845Z,8.42
2018-03-26T02:59:29.318Z,8.43
2018-03-26T03:01:56.831Z,8.37
2018-03-26T03:04:24.285Z,8.43
2018-03-26T03:06:52.969Z,8.42
2018-03-26T03:09:20.444Z,8.46
2018-03-26T03:11:47.952Z,8.43
2018-03-26T03:14:16.436Z,8.37
2018-03-26T03:16:44.064Z,8.40
2018-03-26T03:19:11.568Z,8.39
2018-03-26T03:21:39.152Z,8.34
2018-03-26T03:24:06.944Z,8.32
2018-03-26T03:26:35.252Z,8.33
2018-03-26T03:29:02.713Z,8.32
2018-03-26T03:31:31.243Z,8.32
2018-03-26T03:33:58.748Z,8.35
2018-03-26T03:36:27.402Z,8.35
2018-03-26T03:38:54.870Z,8.34
2018-03-26T03:41:22.350Z,8.30
2018-03-26T03:43:50.724Z,8.26
2018-03-26T03:46:18.182Z,8.24
2018-03-26T03:48:45.819Z,8.26
2018-03-26T03:51:13.312Z,8.27
2018-03-26T03:53:40.758Z,8.20
2018-03-26T03:56:08.214Z,8.23
2018-03-26T03:58:35.716Z,8.24
2018-03-26T04:01:03.186Z,8.24
2018-03-26T04:03:30.708Z,8.15
2018-03-26T04:05:58.253Z,8.14
2018-03-26T04:08:25.740Z,8.16
2018-03-26T04:10:53.220Z,8.22
2018-03-26T04:13:20.787Z,8.22
2018-03-26T04:15:48.228Z,8.23
2018-03-26T04:18:15.749Z,8.20
2018-03-26T04:20:43.202Z,8.17
2018-03-26T04:23:10.674Z,8.22
2018-03-26T04:25:38.176Z,8.21
2018-03-26T04:28:05.712Z,8.24
2018-03-26T04:30:33.168Z,8.23
2018-03-26T04:33:00.672Z,8.20
2018-03-26T04:35:28.153Z,8.20
2018-03-26T04:37:55.613Z,8.25
2018-03-26T04:40:23.086Z,8.27
2018-03-26T04:42:51.293Z,8.23
2018-03-26T04:45:18.788Z,8.18
2018-03-26T04:47:46.226Z,8.12
2018-03-26T04:50:14.770Z,8.08
2018-03-26T04:52:42.472Z,8.12
2018-03-26T04:55:09.932Z,8.11
2018-03-26T04:57:37.386Z,8.11
2018-03-26T05:00:04.881Z,8.12
2018-03-26T05:02:32.363Z,8.03
2018-03-26T05:04:59.890Z,8.06
2018-03-26T05:07:27.387Z,8.02
2018-03-26T05:09:54.873Z,7.98
2018-03-26T05:12:22.370Z,7.96
2018-03-26T05:14:49.870Z,7.95
2018-03-26T05:17:17.349Z,7.96
2018-03-26T05:19:44.836Z,7.94
2018-03-26T05:22:12.323Z,7.95
2018-03-26T05:24:39.775Z,7.96
2018-03-26T05:27:07.305Z,8.00
2018-03-26T05:29:34.762Z,8.01
2018-03-26T05:32:02.236Z,7.96
2018-03-26T05:34:29.731Z,7.97
2018-03-26T05:36:57.237Z,7.95
2018-03-26T05:39:24.691Z,7.96
2018-03-26T05:41:52.181Z,7.95
2018-03-26T05:44:20.890Z,7.99
2018-03-26T05:46:48.431Z,8.03
2018-03-26T05:49:15.883Z,8.06
2018-03-26T05:51:43.379Z,8.01
2018-03-26T05:54:10.843Z,8.02
2018-03-26T05:56:38.313Z,8.03
2018-03-26T05:59:05.824Z,8.04
2018-03-26T06:01:33.320Z,8.05
2018-03-26T06:04:00.775Z,8.07
2018-03-26T06:06:28.287Z,8.06
2018-03-26T06:08:55.769Z,8.11
2018-03-26T06:11:23.257Z,8.09
2018-03-26T06:13:50.761Z,8.05
2018-03-26T06:16:18.249Z,8.10
2018-03-26T06:18:45.684Z,8.03
2018-03-26T06:21:13.221Z,8.09
2018-03-26T06:23:41.217Z,8.16
2018-03-26T06:26:08.712Z,8.13
2018-03-26T06:28:36.271Z,8.12
2018-03-26T06:31:03.817Z,8.13
2018-03-26T06:33:31.378Z,8.14
2018-03-26T06:35:58.905Z,8.09
2018-03-26T06:38:32.047Z,8.17
2018-03-26T06:40:59.488Z,8.15
2018-03-26T06:43:27.019Z,8.17
2018-03-26T06:45:54.723Z,8.17
2018-03-26T06:48:22.338Z,8.22
2018-03-26T06:50:49.846Z,8.17
2018-03-26T06:53:17.573Z,8.19
2018-03-26T06:55:45.345Z,8.24
2018-03-26T06:58:12.883Z,8.21
2018-03-26T07:00:40.357Z,8.20
2018-03-26T07:03:09.104Z,8.24
2018-03-26T07:05:36.680Z,8.31
2018-03-26T07:08:04.227Z,8.39
2018-03-26T07:10:31.753Z,8.37
2018-03-26T07:12:59.255Z,8.35
2018-03-26T07:15:26.719Z,8.41
2018-03-26T07:17:54.182Z,8.47
2018-03-26T07:20:21.680Z,8.52
2018-03-26T07:22:49.133Z,8.50
2018-03-26T07:25:16.554Z,8.49
2018-03-26T07:27:44.075Z,8.51
2018-03-26T07:30:11.531Z,8.55
2018-03-26T07:32:39.047Z,8.55
2018-03-26T07:35:06.560Z,8.50
2018-03-26T07:37:34.003Z,8.48
2018-03-26T07:40:01.474Z,8.47
2018-03-26T07:42:28.950Z,8.43
2018-03-26T07:44:56.471Z,8.43
2018-03-26T07:47:23.981Z,8.46
2018-03-26T07:49:51.497Z,8.49
2018-03-26T07:52:19.011Z,8.50
2018-03-26T07:54:46.513Z,8.50
2018-03-26T07:57:14.659Z,8.49
2018-03-26T07:59:42.144Z,8.48
2018-03-26T08:02:09.629Z,8.45
2018-03-26T08:04:37.159Z,8.42
2018-03-26T08:07:04.628Z,8.43
2018-03-26T08:09:32.080Z,8.46
2018-03-26T08:11:59.568Z,8.47
2018-03-26T08:14:27.100Z,8.49
2018-03-26T08:16:54.559Z,8.46
2018-03-26T08:19:22.001Z,8.48
2018-03-26T08:21:49.509Z,8.48
2018-03-26T08:24:17.000Z,8.49
2018-03-26T08:26:44.634Z,8.48
2018-03-26T08:29:12.119Z,8.50
2018-03-26T08:31:39.594Z,8.51
2018-03-26T08:34:07.075Z,8.58
2018-03-26T08:36:34.673Z,8.58
2018-03-26T08:39:02.230Z,8.56
2018-03-26T08:41:29.743Z,8.55
2018-03-26T08:43:57.290Z,8.57
2018-03-26T08:46:24.791Z,8.59
2018-03-26T08:48:52.310Z,8.54
2018-03-26T08:51:19.852Z,8.54
2018-03-26T08:53:47.341Z,8.55
2018-03-26T08:56:14.813Z,8.58
2018-03-26T08:58:42.350Z,8.58
2018-03-26T09:01:19.432Z,8.58
2018-03-26T09:03:46.897Z,8.55
2018-03-26T09:06:14.383Z,8.60
2018-03-26T09:08:41.856Z,8.62
2018-03-26T09:11:09.363Z,8.66
2018-03-26T09:13:36.832Z,8.71
2018-03-26T09:16:04.301Z,8.71
2018-03-26T09:18:31.905Z,8.66
2018-03-26T09:20:59.389Z,8.68
2018-03-26T09:23:26.881Z,8.68
2018-03-26T09:25:54.384Z,8.69
2018-03-26T09:28:21.810Z,8.65
2018-03-26T09:30:49.289Z,8.68
2018-03-26T09:33:16.917Z,8.71
2018-03-26T09:35:44.374Z,8.71
2018-03-26T09:38:11.839Z,8.77
2018-03-26T09:40:39.308Z,8.77
2018-03-26T09:43:06.767Z,8.76
2018-03-26T09:45:34.268Z,8.78
2018-03-26T09:48:02.197Z,8.78
2018-03-26T09:50:29.707Z,8.78
2018-03-26T09:52:57.189Z,8.81
2018-03-26T09:55:24.713Z,8.80
2018-03-26T09:57:52.256Z,8.83
2018-03-26T10:00:19.739Z,8.81
2018-03-26T10:02:47.315Z,8.81
2018-03-26T10:05:14.802Z,8.85
2018-03-26T10:07:42.334Z,8.93
2018-03-26T10:10:24.052Z,8.91
2018-03-26T10:12:52.655Z,8.91
2018-03-26T10:15:20.141Z,8.85
2018-03-26T10:17:47.709Z,8.87
2018-03-26T10:20:15.255Z,8.84
2018-03-26T10:22:43.534Z,8.79
2018-03-26T10:25:11.110Z,8.76
2018-03-26T10:27:39.434Z,8.80
2018-03-26T10:30:06.947Z,8.81
2018-03-26T10:32:34.442Z,8.75
2018-03-26T10:35:01.900Z,8.80
2018-03-26T10:37:29.372Z,8.77
2018-03-26T10:39:56.901Z,8.75
2018-03-26T10:42:24.432Z,8.74
2018-03-26T10:44:51.922Z,8.74
2018-03-26T10:47:19.404Z,8.74
2018-03-26T10:49:46.878Z,8.73
2018-03-26T10:52:14.320Z,8.74
2018-03-26T10:54:41.972Z,8.77
2018-03-26T10:57:09.472Z,8.77
2018-03-26T10:59:36.948Z,8.73
2018-03-26T11:02:04.454Z,8.72
2018-03-26T11:04:32.150Z,8.73
2018-03-26T11:06:59.812Z,8.74
2018-03-26T11:09:27.373Z,8.78
2018-03-26T11:11:54.900Z,8.83
2018-03-26T11:14:22.393Z,8.86
2018-03-26T11:16:49.953Z,8.86
2018-03-26T11:19:17.426Z,8.84
2018-03-26T11:24:46.960Z,8.88
2018-03-26T11:27:14.406Z,8.84
2018-03-26T11:29:41.959Z,8.83
2018-03-26T11:32:09.512Z,8.82
2018-03-26T11:34:36.990Z,8.84
2018-03-26T11:37:04.478Z,8.86
2018-03-26T11:39:31.953Z,8.93
2018-03-26T11:44:52.014Z,8.86
2018-03-26T11:47:19.504Z,8.91
2018-03-26T11:49:47.028Z,8.91
2018-03-26T11:52:14.473Z,8.91
2018-03-26T11:54:41.952Z,8.86
2018-03-26T11:57:09.477Z,8.90
2018-03-26T11:59:36.963Z,8.91
2018-03-26T12:02:04.475Z,8.88
2018-03-26T12:04:32.010Z,8.88
2018-03-26T12:06:59.476Z,8.86
2018-03-26T12:09:26.975Z,8.80
2018-03-26T12:11:54.430Z,8.76
2018-03-26T12:14:21.932Z,8.76
2018-03-26T12:16:49.424Z,8.75
2018-03-26T12:19:16.946Z,8.79
2018-03-26T12:21:44.498Z,8.85
2018-03-26T12:24:23.749Z,8.93
2018-03-26T12:26:51.245Z,8.94
2018-03-26T12:29:30.616Z,8.92
2018-03-26T12:31:58.192Z,8.88
2018-03-26T12:34:37.421Z,8.87
2018-03-26T12:37:04.963Z,8.89
2018-03-26T12:39:33.285Z,8.90
2018-03-26T12:45:16.818Z,8.95
2018-03-26T12:47:44.296Z,9.01
2018-03-26T12:50:26.070Z,8.98
2018-03-26T12:52:54.338Z,8.98
2018-03-26T12:55:21.861Z,9.04
2018-03-26T12:58:01.136Z,9.09
2018-03-26T13:00:28.655Z,9.13
2018-03-26T13:02:56.222Z,9.20
2018-03-26T13:05:23.720Z,9.23
2018-03-26T13:07:51.196Z,9.24
2018-03-26T13:10:18.643Z,9.28
2018-03-26T13:12:46.088Z,9.33
2018-03-26T13:15:13.594Z,9.40
2018-03-26T13:17:41.154Z,9.50
2018-03-26T13:20:13.566Z,9.59
2018-03-26T13:22:41.104Z,9.65
2018-03-26T13:25:08.588Z,9.67
2018-03-26T13:27:36.122Z,9.72
2018-03-26T13:32:56.512Z,9.88
2018-03-26T13:35:24.001Z,9.87
2018-03-26T13:37:51.462Z,9.88
2018-03-26T13:40:18.928Z,9.93
2018-03-26T13:42:46.834Z,9.93
2018-03-26T13:45:14.718Z,9.93
2018-03-26T13:47:42.208Z,9.96
2018-03-26T13:53:02.484Z,10.17
2018-03-26T13:55:30.092Z,10.18
2018-03-26T13:57:57.642Z,10.18
2018-03-26T14:00:25.923Z,10.20
2018-03-26T14:02:53.479Z,10.32
2018-03-26T14:05:20.969Z,10.39
2018-03-26T14:07:48.461Z,10.63
2018-03-26T14:10:27.750Z,10.89
2018-03-26T14:13:07.027Z,11.06
2018-03-26T14:15:46.393Z,11.09
2018-03-26T14:18:14.000Z,10.92
2018-03-26T14:20:41.511Z,10.76
2018-03-26T14:23:09.040Z,10.57
2018-03-26T14:25:36.549Z,10.40
2018-03-26T14:28:04.035Z,10.34
2018-03-26T14:30:31.586Z,10.24
2018-03-26T14:32:59.032Z,10.25
2018-03-26T14:38:17.433Z,10.25
2018-03-26T14:40:45.836Z,10.25
2018-03-26T14:43:14.364Z,10.21
2018-03-26T14:45:41.895Z,10.12
2018-03-26T14:48:09.416Z,10.05
2018-03-26T14:50:36.875Z,10.08
2018-03-26T14:53:04.359Z,10.05
2018-03-26T14:55:32.006Z,9.98
2018-03-26T14:57:59.704Z,9.92
2018-03-26T15:00:27.173Z,9.84
2018-03-26T15:02:54.776Z,9.79
2018-03-26T15:05:22.317Z,9.72
2018-03-26T15:07:49.871Z,9.68
2018-03-26T15:10:17.345Z,9.70
2018-03-26T15:12:44.833Z,9.65
2018-03-26T15:15:12.446Z,9.62
2018-03-26T15:17:39.901Z,9.56
2018-03-26T15:20:07.843Z,9.58
2018-03-26T15:22:35.515Z,9.54
2018-03-26T15:25:02.977Z,9.53
2018-03-26T15:27:30.625Z,9.56
2018-03-26T15:29:58.986Z,9.58
2018-03-26T15:32:26.561Z,9.53
2018-03-26T15:34:54.105Z,9.50
2018-03-26T15:37:21.975Z,9.55
2018-03-26T15:42:25.584Z,9.38
2018-03-26T15:44:53.067Z,9.31
2018-03-26T15:47:20.529Z,9.27
2018-03-26T15:49:48.875Z,9.29
2018-03-26T15:52:16.393Z,9.27
2018-03-26T15:54:43.939Z,9.27
2018-03-26T15:57:11.507Z,9.27
2018-03-26T15:59:39.059Z,9.23
2018-03-26T16:02:10.915Z,9.24
2018-03-26T16:04:38.439Z,9.20
2018-03-26T16:07:05.946Z,9.13
2018-03-26T16:09:33.681Z,9.11
2018-03-26T16:12:01.257Z,9.16
2018-03-26T16:14:28.783Z,9.15
2018-03-26T16:16:56.263Z,9.16
2018-03-26T16:19:23.839Z,9.17
2018-03-26T16:21:52.598Z,9.17
2018-03-26T16:24:20.082Z,9.17
2018-03-26T16:26:47.632Z,9.12
2018-03-26T16:29:15.217Z,9.06
2018-03-26T16:31:42.935Z,8.98
2018-03-26T16:34:10.585Z,8.91
2018-03-26T16:36:38.118Z,8.84
2018-03-26T16:39:05.731Z,8.83
2018-03-26T16:41:44.888Z,8.82
2018-03-26T16:44:12.416Z,8.79
2018-03-26T16:46:39.942Z,8.80
2018-03-26T16:49:07.473Z,8.84
2018-03-26T16:51:34.995Z,8.83
2018-03-26T16:54:02.552Z,8.80
2018-03-26T16:56:30.067Z,8.85
2018-03-26T16:58:57.549Z,8.81
2018-03-26T17:01:25.093Z,8.75
2018-03-26T17:03:52.641Z,8.71
2018-03-26T17:06:20.139Z,8.69
2018-03-26T17:08:48.574Z,8.69
2018-03-26T17:11:35.486Z,8.68
2018-03-26T17:14:03.072Z,8.66
2018-03-26T17:16:30.629Z,8.63
2018-03-26T17:18:58.100Z,8.63
2018-03-26T17:21:31.445Z,8.69
2018-03-26T17:23:59.053Z,8.67
2018-03-26T17:26:26.583Z,8.62
2018-03-26T17:28:54.122Z,8.59
2018-03-26T17:31:36.269Z,8.56
2018-03-26T17:34:03.807Z,8.56
2018-03-26T17:36:31.833Z,8.54
2018-03-26T17:38:59.437Z,8.50
2018-03-26T17:41:26.952Z,8.50
2018-03-26T17:43:54.461Z,8.52
2018-03-26T17:46:21.973Z,8.47
2018-03-26T17:48:50.388Z,8.42
2018-03-26T17:51:17.943Z,8.37
2018-03-26T17:53:45.657Z,8.36
2018-03-26T17:56:13.253Z,8.34
2018-03-26T17:58:40.766Z,8.32
2018-03-26T18:01:08.319Z,8.32
2018-03-26T18:03:35.818Z,8.35
2018-03-26T18:06:03.452Z,8.36
2018-03-26T18:08:30.996Z,8.31
2018-03-26T18:10:58.483Z,8.27
2018-03-26T18:13:26.066Z,8.26
2018-03-26T18:15:53.807Z,8.26
2018-03-26T18:18:21.335Z,8.21
2018-03-26T18:20:48.894Z,8.18
2018-03-26T18:23:16.466Z,8.19
2018-03-26T18:25:43.998Z,8.24
2018-03-26T18:28:11.562Z,8.26
2018-03-26T18:30:39.100Z,8.23
2018-03-26T18:33:07.655Z,8.19
2018-03-26T18:35:35.298Z,8.17
2018-03-26T18:38:03.018Z,8.13
2018-03-26T18:40:30.855Z,8.09
2018-03-26T18:42:58.387Z,8.07
2018-03-26T18:45:25.916Z,8.06
2018-03-26T18:47:53.517Z,8.00
2018-03-26T18:50:21.023Z,7.98
2018-03-26T18:52:48.575Z,7.96
2018-03-26T18:55:16.051Z,7.94
2018-03-26T18:57:43.850Z,7.93
2018-03-26T19:00:16.554Z,7.94
2018-03-26T19:02:44.064Z,7.91
2018-03-26T19:05:11.617Z,7.92
2018-03-26T19:07:39.168Z,7.92
2018-03-26T19:10:06.767Z,7.90
2018-03-26T19:12:34.247Z,7.92
2018-03-26T19:15:01.703Z,7.90
2018-03-26T19:17:29.226Z,7.87
2018-03-26T19:19:56.854Z,7.93
2018-03-26T19:22:24.394Z,7.94
2018-03-26T19:24:51.903Z,7.98
2018-03-26T19:27:19.420Z,8.05
2018-03-26T19:29:46.982Z,8.05
2018-03-26T19:32:14.539Z,8.00
2018-03-26T19:34:42.190Z,7.97
2018-03-26T19:37:09.778Z,7.89
2018-03-26T19:39:37.298Z,7.85
2018-03-26T19:42:04.803Z,7.91
2018-03-26T19:44:32.347Z,7.99
2018-03-26T19:47:00.006Z,7.97
2018-03-26T19:49:27.504Z,8.04
2018-03-26T19:51:55.030Z,8.04
2018-03-26T19:54:22.604Z,8.06
2018-03-26T19:56:50.151Z,8.06
2018-03-26T19:59:17.624Z,8.07
2018-03-26T20:01:45.194Z,8.13
2018-03-26T20:04:12.754Z,8.08
2018-03-26T20:06:40.306Z,8.07
2018-03-26T20:09:08.273Z,8.06
2018-03-26T20:11:35.744Z,8.04
2018-03-26T20:14:03.574Z,8.03
2018-03-26T20:16:31.274Z,8.04
2018-03-26T20:18:58.782Z,7.97
2018-03-26T20:21:26.358Z,7.97
2018-03-26T20:23:53.894Z,7.98
2018-03-26T20:26:21.442Z,7.97
2018-03-26T20:28:48.904Z,7.97
2018-03-26T20:31:16.416Z,8.02
2018-03-26T20:33:43.924Z,7.98
2018-03-26T20:36:11.506Z,7.93
2018-03-26T20:38:38.986Z,7.91
2018-03-26T20:41:06.531Z,7.97
2018-03-26T20:43:34.034Z,7.96
2018-03-26T20:46:01.536Z,7.94
2018-03-26T20:48:29.028Z,7.92
2018-03-26T20:50:56.564Z,7.88
2018-03-26T20:53:24.074Z,7.85
2018-03-26T20:55:51.606Z,7.85
2018-03-26T20:58:19.105Z,7.89
2018-03-26T21:00:46.638Z,7.86
2018-03-26T21:03:14.128Z,7.87
2018-03-26T21:05:41.628Z,7.92
2018-03-26T21:08:09.138Z,7.87
2018-03-26T21:10:36.812Z,7.81
2018-03-26T21:13:04.343Z,7.69
2018-03-26T21:15:31.842Z,7.60
2018-03-26T21:17:59.303Z,7.51
2018-03-26T21:20:26.864Z,7.46
2018-03-26T21:22:54.832Z,7.41
2018-03-26T21:25:22.304Z,7.35
2018-03-26T21:27:49.771Z,7.26
2018-03-26T21:33:09.558Z,7.00
2018-03-26T21:35:37.014Z,6.93
2018-03-26T21:38:04.569Z,6.94
2018-03-26T21:40:33.590Z,6.86
2018-03-26T21:43:01.054Z,6.86
2018-03-26T21:45:28.616Z,6.81
2018-03-26T21:47:56.116Z,6.72
2018-03-26T21:50:23.639Z,6.65
2018-03-26T21:52:51.192Z,6.61
2018-03-26T21:55:18.674Z,6.59
2018-03-26T21:57:46.238Z,6.56
2018-03-26T22:00:21.603Z,6.53
2018-03-26T22:02:49.338Z,6.49
2018-03-26T22:05:16.832Z,6.40
2018-03-26T22:07:44.535Z,6.41
2018-03-26T22:10:11.982Z,6.40
2018-03-26T22:12:39.582Z,6.38
2018-03-26T22:15:07.284Z,6.39
2018-03-26T22:17:34.749Z,6.37
2018-03-26T22:20:03.024Z,6.43
2018-03-26T22:22:30.527Z,6.44
2018-03-26T22:24:58.085Z,6.50
2018-03-26T22:27:25.624Z,6.51
2018-03-26T22:29:53.080Z,6.52
2018-03-26T22:32:30.266Z,6.50
2018-03-26T22:34:57.789Z,6.46
2018-03-26T22:37:25.271Z,6.51
2018-03-26T22:39:53.798Z,6.53
2018-03-26T22:42:31.050Z,6.54
2018-03-26T22:44:58.534Z,6.54
2018-03-26T22:47:26.035Z,6.51
2018-03-26T22:49:53.703Z,6.52
2018-03-26T22:52:21.161Z,6.51
2018-03-26T22:54:48.630Z,6.50
2018-03-26T22:57:16.128Z,6.49
2018-03-26T22:59:43.723Z,6.48
2018-03-26T23:02:11.209Z,6.45
2018-03-26T23:04:38.705Z,6.48
2018-03-26T23:07:06.221Z,6.48
2018-03-26T23:09:33.904Z,6.52
2018-03-26T23:12:15.829Z,6.53
2018-03-26T23:14:43.394Z,6.46
2018-03-26T23:17:11.006Z,6.45
2018-03-26T23:19:38.516Z,6.39
2018-03-26T23:22:06.013Z,6.33
2018-03-26T23:24:33.508Z,6.32
2018-03-26T23:27:01.035Z,6.31
2018-03-26T23:29:28.566Z,6.32
2018-03-26T23:31:56.073Z,6.33
2018-03-26T23:34:23.534Z,6.33
2018-03-26T23:36:51.111Z,6.36
2018-03-26T23:39:18.626Z,6.29
2018-03-26T23:41:46.099Z,6.20
2018-03-26T23:44:13.547Z,6.18
2018-03-26T23:46:41.003Z,6.19
2018-03-26T23:49:08.436Z,6.25
2018-03-26T23:51:38.882Z,6.27
2018-03-26T23:54:06.350Z,6.27
2018-03-26T23:56:33.817Z,6.23
2018-03-26T23:59:01.361Z,6.20
